createdAt,value
2019-03-12T00:01:19.400Z,3.2
2019-03-12T00:02:26.374Z,3.2
2019-03-12T00:03:33.587Z,3.1
2019-03-12T00:04:40.788Z,3.1
2019-03-12T00:05:48.001Z,3.1
2019-03-12T00:06:54.935Z,3.1
2019-03-12T00:08:02.153Z,3.1
2019-03-12T00:09:09.355Z,3.1
2019-03-12T00:10:16.577Z,3.1
2019-03-12T00:11:23.778Z,3.1
2019-03-12T00:12:30.717Z,3.1
2019-03-12T00:13:37.915Z,3.1
2019-03-12T00:14:45.131Z,3.1
2019-03-12T00:15:52.338Z,3.1
2019-03-12T00:16:59.564Z,3.1
2019-03-12T00:18:06.508Z,3.1
2019-03-12T00:19:13.506Z,3.1
2019-03-12T00:20:20.454Z,3.1
2019-03-12T00:21:27.673Z,3.1
2019-03-12T00:22:34.331Z,3.1
2019-03-12T00:23:41.552Z,3.1
2019-03-12T00:24:48.781Z,3.1
2019-03-12T00:25:56.003Z,3.1
2019-03-12T00:27:03.372Z,3.1
2019-03-12T00:28:10.309Z,3.1
2019-03-12T00:29:17.748Z,3.2
2019-03-12T00:30:24.956Z,3.2
2019-03-12T00:31:32.169Z,3.2
2019-03-12T00:32:39.456Z,3.2
2019-03-12T00:33:46.678Z,3.2
2019-03-12T00:34:53.625Z,3.2
2019-03-12T00:36:00.846Z,3.2
2019-03-12T00:37:08.052Z,3.2
2019-03-12T00:38:15.487Z,3.2
2019-03-12T00:39:22.404Z,3.2
2019-03-12T00:40:29.350Z,3.2
2019-03-12T00:41:36.558Z,3.2
2019-03-12T00:42:44.001Z,3.2
2019-03-12T00:43:51.238Z,3.2
2019-03-12T00:44:58.467Z,3.2
2019-03-12T00:46:05.405Z,3.2
2019-03-12T00:47:12.599Z,3.2
2019-03-12T00:48:19.529Z,3.2
2019-03-12T00:49:27.048Z,3.2
2019-03-12T00:50:33.981Z,3.2
2019-03-12T00:51:41.217Z,3.2
2019-03-12T00:52:48.434Z,3.2
2019-03-12T00:53:55.666Z,3.2
2019-03-12T00:55:02.870Z,3.2
2019-03-12T00:56:10.080Z,3.2
2019-03-12T00:57:17.014Z,3.2
2019-03-12T00:58:24.211Z,3.2
2019-03-12T00:59:31.146Z,3.2
2019-03-12T01:00:38.349Z,3.2
2019-03-12T01:01:45.558Z,3.1
2019-03-12T01:02:52.772Z,3.1
2019-03-12T01:03:59.708Z,3.1
2019-03-12T01:05:06.648Z,3.1
2019-03-12T01:06:13.850Z,3.1
2019-03-12T01:07:21.070Z,3.1
2019-03-12T01:08:28.266Z,3.1
2019-03-12T01:09:35.711Z,3.1
2019-03-12T01:10:42.909Z,3
2019-03-12T01:11:50.118Z,3
2019-03-12T01:12:57.322Z,3
2019-03-12T01:14:04.534Z,3
2019-03-12T01:15:11.730Z,3
2019-03-12T01:16:18.937Z,2.9
2019-03-12T01:17:25.861Z,2.9
2019-03-12T01:18:32.787Z,2.9
2019-03-12T01:19:39.994Z,2.8
2019-03-12T01:20:47.290Z,2.8
2019-03-12T01:21:54.489Z,2.8
2019-03-12T01:23:01.691Z,2.8
2019-03-12T01:24:08.902Z,2.8
2019-03-12T01:25:16.098Z,2.8
2019-03-12T01:26:23.298Z,2.8
2019-03-12T01:27:29.973Z,2.7
2019-03-12T01:28:37.175Z,2.7
2019-03-12T01:29:43.902Z,2.7
2019-03-12T01:30:51.110Z,2.7
2019-03-12T01:31:58.037Z,2.7
2019-03-12T01:33:04.976Z,2.7
2019-03-12T01:34:12.178Z,2.7
2019-03-12T01:35:19.383Z,2.7
2019-03-12T01:36:26.603Z,2.7
2019-03-12T01:37:33.805Z,2.7
2019-03-12T01:38:40.746Z,2.7
2019-03-12T01:39:47.671Z,2.8
2019-03-12T01:40:54.891Z,2.8
2019-03-12T01:42:02.072Z,2.8
2019-03-12T01:43:09.355Z,2.8
2019-03-12T01:44:16.556Z,2.8
2019-03-12T01:45:23.495Z,2.8
2019-03-12T01:46:30.439Z,2.8
2019-03-12T01:47:37.385Z,2.8
2019-03-12T01:48:44.602Z,2.8
2019-03-12T01:49:51.808Z,2.8
2019-03-12T01:50:59.010Z,2.8
2019-03-12T01:52:06.216Z,2.8
2019-03-12T01:53:13.420Z,2.8
2019-03-12T01:54:20.639Z,2.9
2019-03-12T01:55:27.572Z,2.9
2019-03-12T01:56:34.794Z,2.9
2019-03-12T01:57:42.006Z,2.8
2019-03-12T01:58:49.214Z,2.9
2019-03-12T01:59:56.162Z,2.8
2019-03-12T02:01:03.359Z,2.9
2019-03-12T02:02:10.284Z,2.9
2019-03-12T02:03:16.661Z,2.9
2019-03-12T02:04:23.588Z,2.9
2019-03-12T02:05:30.793Z,2.9
2019-03-12T02:06:37.718Z,2.9
2019-03-12T02:07:44.364Z,2.9
2019-03-12T02:08:51.568Z,2.9
2019-03-12T02:09:58.855Z,2.9
2019-03-12T02:11:06.035Z,2.9
2019-03-12T02:12:13.231Z,2.9
2019-03-12T02:13:20.450Z,2.9
2019-03-12T02:14:27.642Z,2.9
2019-03-12T02:15:34.596Z,2.9
2019-03-12T02:16:41.521Z,2.9
2019-03-12T02:17:48.718Z,2.9
2019-03-12T02:18:55.919Z,2.9
2019-03-12T02:20:02.849Z,2.9
2019-03-12T02:21:10.064Z,3
2019-03-12T02:22:17.269Z,3
2019-03-12T02:23:24.214Z,3
2019-03-12T02:24:31.410Z,3
2019-03-12T02:25:38.633Z,3
2019-03-12T02:26:45.839Z,3
2019-03-12T02:27:53.045Z,3
2019-03-12T02:29:00.246Z,3
2019-03-12T02:30:07.449Z,3
2019-03-12T02:31:14.651Z,3.1
2019-03-12T02:32:21.849Z,3
2019-03-12T02:33:29.055Z,3.1
2019-03-12T02:34:36.286Z,3
2019-03-12T02:35:43.210Z,3
2019-03-12T02:36:50.167Z,3
2019-03-12T02:37:57.415Z,3
2019-03-12T02:39:04.624Z,3.1
2019-03-12T02:40:11.540Z,3
2019-03-12T02:41:18.764Z,3
2019-03-12T02:42:25.963Z,3
2019-03-12T02:43:33.166Z,3
2019-03-12T02:44:40.371Z,3
2019-03-12T02:45:47.575Z,3
2019-03-12T02:46:54.877Z,3
2019-03-12T02:48:02.101Z,3
2019-03-12T02:49:10.510Z,3
2019-03-12T02:50:17.742Z,3
2019-03-12T02:51:24.428Z,3
2019-03-12T02:52:31.396Z,3
2019-03-12T02:53:38.321Z,3
2019-03-12T02:54:45.534Z,3
2019-03-12T02:56:07.406Z,3
2019-03-12T02:57:14.608Z,3
2019-03-12T02:58:21.537Z,3
2019-03-12T02:59:28.825Z,3
2019-03-12T03:00:35.758Z,3
2019-03-12T03:01:42.963Z,3
2019-03-12T03:02:50.151Z,3
2019-03-12T03:03:57.493Z,3
2019-03-12T03:05:04.693Z,3
2019-03-12T03:06:11.614Z,3
2019-03-12T03:07:18.549Z,3
2019-03-12T03:08:25.762Z,3
2019-03-12T03:09:32.966Z,3
2019-03-12T03:10:40.171Z,3
2019-03-12T03:11:50.756Z,3
2019-03-12T03:12:58.261Z,3
2019-03-12T03:14:05.465Z,3
2019-03-12T03:15:12.731Z,3
2019-03-12T03:16:24.808Z,3
2019-03-12T03:17:32.038Z,3
2019-03-12T03:18:38.701Z,3
2019-03-12T03:19:45.645Z,3
2019-03-12T03:20:52.847Z,3.1
2019-03-12T03:22:00.065Z,3.1
2019-03-12T03:23:07.285Z,3.1
2019-03-12T03:24:14.259Z,3
2019-03-12T03:25:21.471Z,3.1
2019-03-12T03:26:28.679Z,3.1
2019-03-12T03:27:35.340Z,3
2019-03-12T03:28:42.278Z,3.1
2019-03-12T03:29:49.517Z,3
2019-03-12T03:30:56.721Z,3
2019-03-12T03:32:04.059Z,3.1
2019-03-12T03:33:11.419Z,3
2019-03-12T03:34:18.343Z,3
2019-03-12T03:35:33.701Z,3
2019-03-12T03:36:40.920Z,3
2019-03-12T03:37:48.134Z,3
2019-03-12T03:38:55.342Z,3
2019-03-12T03:40:02.274Z,3
2019-03-12T03:41:09.485Z,3
2019-03-12T03:42:16.686Z,3
2019-03-12T03:43:23.785Z,3
2019-03-12T03:44:30.705Z,3
2019-03-12T03:45:37.933Z,3
2019-03-12T03:46:45.126Z,3.1
2019-03-12T03:47:52.328Z,3
2019-03-12T03:48:59.534Z,3
2019-03-12T03:50:06.789Z,3
2019-03-12T03:51:13.730Z,3.1
2019-03-12T03:52:20.933Z,3.1
2019-03-12T03:53:28.158Z,3.1
2019-03-12T03:54:35.393Z,3.1
2019-03-12T03:55:42.337Z,3.1
2019-03-12T03:56:49.266Z,3
2019-03-12T03:57:56.198Z,3
2019-03-12T03:59:02.851Z,3
2019-03-12T04:00:10.199Z,3.1
2019-03-12T04:01:17.140Z,3
2019-03-12T04:02:24.461Z,3.1
2019-03-12T04:03:31.660Z,3
2019-03-12T04:04:38.886Z,3
2019-03-12T04:05:46.085Z,3.1
2019-03-12T04:06:53.402Z,3.1
2019-03-12T04:08:00.332Z,3.1
2019-03-12T04:09:07.261Z,3
2019-03-12T04:10:14.468Z,3.1
2019-03-12T04:11:21.396Z,3.1
2019-03-12T04:12:28.602Z,3.1
2019-03-12T04:13:36.041Z,3.1
2019-03-12T04:14:43.251Z,3.1
2019-03-12T04:15:50.694Z,3.1
2019-03-12T04:16:57.627Z,3.1
2019-03-12T04:18:05.133Z,3.1
2019-03-12T04:19:12.060Z,3.1
2019-03-12T04:20:19.354Z,3.1
2019-03-12T04:21:26.786Z,3.1
2019-03-12T04:22:34.118Z,3.1
2019-03-12T04:23:41.322Z,3.1
2019-03-12T04:24:48.523Z,3.1
2019-03-12T04:25:55.452Z,3.1
2019-03-12T04:27:02.690Z,3.1
2019-03-12T04:28:09.662Z,3.1
2019-03-12T04:29:16.858Z,3.1
2019-03-12T04:30:23.788Z,3.1
2019-03-12T04:31:31.223Z,3.1
2019-03-12T04:32:38.520Z,3.1
2019-03-12T04:33:45.697Z,3.1
2019-03-12T04:34:52.622Z,3.1
2019-03-12T04:35:59.565Z,3
2019-03-12T04:37:06.786Z,3
2019-03-12T04:38:13.994Z,3.1
2019-03-12T04:39:21.207Z,3
2019-03-12T04:40:28.428Z,3
2019-03-12T04:41:35.635Z,3
2019-03-12T04:42:42.840Z,3
2019-03-12T04:43:49.770Z,3
2019-03-12T04:44:56.991Z,3
2019-03-12T04:46:04.193Z,3
2019-03-12T04:47:11.394Z,3
2019-03-12T04:48:18.348Z,3
2019-03-12T04:49:25.567Z,3
2019-03-12T04:50:32.820Z,3
2019-03-12T04:51:39.854Z,3
2019-03-12T04:52:46.812Z,3
2019-03-12T04:53:54.247Z,3
2019-03-12T04:55:01.454Z,3
2019-03-12T04:56:08.661Z,3
2019-03-12T04:57:15.881Z,3
2019-03-12T04:58:23.316Z,2.9
2019-03-12T04:59:30.519Z,2.9
2019-03-12T05:00:37.822Z,2.9
2019-03-12T05:01:44.750Z,2.8
2019-03-12T05:02:51.955Z,2.8
2019-03-12T05:03:59.151Z,2.8
2019-03-12T05:05:06.173Z,2.8
2019-03-12T05:06:13.382Z,2.8
2019-03-12T05:07:20.596Z,2.7
2019-03-12T05:08:27.526Z,2.7
2019-03-12T05:09:34.962Z,2.7
2019-03-12T05:10:42.167Z,2.6
2019-03-12T05:11:49.598Z,2.6
2019-03-12T05:12:56.800Z,2.6
2019-03-12T05:14:04.005Z,2.6
2019-03-12T05:15:11.233Z,2.6
2019-03-12T05:16:18.436Z,2.5
2019-03-12T05:17:25.357Z,2.5
2019-03-12T05:18:32.296Z,2.5
2019-03-12T05:19:39.495Z,2.5
2019-03-12T05:20:46.775Z,2.5
2019-03-12T05:21:53.702Z,2.4
2019-03-12T05:23:00.919Z,2.4
2019-03-12T05:24:08.122Z,2.4
2019-03-12T05:25:15.391Z,2.4
2019-03-12T05:26:22.587Z,2.3
2019-03-12T05:27:29.550Z,2.3
2019-03-12T05:28:36.732Z,2.3
2019-03-12T05:29:43.936Z,2.3
2019-03-12T05:30:51.140Z,2.3
2019-03-12T05:31:58.652Z,2.2
2019-03-12T05:33:05.871Z,2.2
2019-03-12T05:34:13.296Z,2.2
2019-03-12T05:35:20.499Z,2.2
2019-03-12T05:36:27.727Z,2.2
2019-03-12T05:37:34.946Z,2.2
2019-03-12T05:38:41.596Z,2.2
2019-03-12T05:39:48.806Z,2.2
2019-03-12T05:40:56.026Z,2.1
2019-03-12T05:42:02.966Z,2.1
2019-03-12T05:43:10.119Z,2.1
2019-03-12T05:44:17.330Z,2.1
2019-03-12T05:45:24.777Z,2.1
2019-03-12T05:46:31.978Z,2.1
2019-03-12T05:47:38.930Z,2.1
2019-03-12T05:48:45.867Z,2.1
2019-03-12T05:49:52.825Z,2.1
2019-03-12T05:50:59.752Z,2.1
2019-03-12T05:52:06.991Z,2.1
2019-03-12T05:53:14.203Z,2.1
2019-03-12T05:54:21.471Z,2.1
2019-03-12T05:55:28.688Z,2.1
2019-03-12T05:56:35.885Z,2
2019-03-12T05:57:43.082Z,2
2019-03-12T05:58:50.498Z,2
2019-03-12T05:59:57.423Z,2
2019-03-12T06:01:04.862Z,2
2019-03-12T06:02:12.070Z,1.9
2019-03-12T06:03:18.718Z,1.9
2019-03-12T06:04:25.672Z,1.8
2019-03-12T06:05:34.732Z,1.8
2019-03-12T06:06:41.948Z,1.7
2019-03-12T06:07:49.179Z,1.8
2019-03-12T06:08:56.381Z,1.7
2019-03-12T06:10:03.815Z,1.7
2019-03-12T06:11:10.745Z,1.7
2019-03-12T06:12:17.980Z,1.7
2019-03-12T06:13:25.187Z,1.7
2019-03-12T06:14:32.391Z,1.7
2019-03-12T06:15:39.595Z,1.7
2019-03-12T06:16:46.810Z,1.7
2019-03-12T06:17:54.031Z,1.7
2019-03-12T06:19:01.255Z,1.8
2019-03-12T06:20:08.466Z,1.7
2019-03-12T06:21:15.908Z,1.8
2019-03-12T06:22:23.113Z,1.8
2019-03-12T06:23:30.318Z,1.8
2019-03-12T06:24:37.516Z,1.8
2019-03-12T06:25:44.799Z,1.8
2019-03-12T06:26:51.982Z,1.9
2019-03-12T06:27:59.200Z,1.9
2019-03-12T06:29:06.126Z,1.9
2019-03-12T06:30:13.371Z,2
2019-03-12T06:31:20.325Z,2
2019-03-12T06:32:27.549Z,2
2019-03-12T06:33:34.495Z,2.1
2019-03-12T06:34:41.714Z,2.1
2019-03-12T06:35:48.921Z,2.1
2019-03-12T06:36:55.814Z,2.2
2019-03-12T06:38:03.033Z,2.3
2019-03-12T06:39:10.213Z,2.3
2019-03-12T06:40:17.427Z,2.4
2019-03-12T06:41:24.870Z,2.4
2019-03-12T06:42:32.106Z,2.5
2019-03-12T06:43:39.052Z,2.5
2019-03-12T06:44:46.277Z,2.5
2019-03-12T06:45:53.500Z,2.5
2019-03-12T06:47:00.435Z,2.5
2019-03-12T06:48:07.141Z,2.5
2019-03-12T06:49:14.373Z,2.5
2019-03-12T06:50:21.804Z,2.5
2019-03-12T06:51:29.004Z,2.5
2019-03-12T06:52:36.456Z,2.5
2019-03-12T06:53:43.699Z,2.6
2019-03-12T06:54:50.643Z,2.4
2019-03-12T06:55:57.868Z,2.4
2019-03-12T06:57:05.081Z,2.5
2019-03-12T06:58:12.292Z,2.6
2019-03-12T06:59:19.593Z,2.6
2019-03-12T07:00:26.814Z,2.7
2019-03-12T07:01:34.066Z,2.8
2019-03-12T07:02:41.295Z,2.9
2019-03-12T07:03:48.546Z,3
2019-03-12T07:04:55.548Z,3
2019-03-12T07:06:02.492Z,3.1
2019-03-12T07:07:12.815Z,3.2
2019-03-12T07:08:23.314Z,3.2
2019-03-12T07:09:30.532Z,3.3
2019-03-12T07:10:37.769Z,3.3
2019-03-12T07:11:44.993Z,3.3
2019-03-12T07:12:52.211Z,3.3
2019-03-12T07:13:59.144Z,3.3
2019-03-12T07:15:06.390Z,3.4
2019-03-12T07:16:13.824Z,3.4
2019-03-12T07:17:21.279Z,3.5
2019-03-12T07:18:28.518Z,3.6
2019-03-12T07:19:35.683Z,3.4
2019-03-12T07:20:42.901Z,3.4
2019-03-12T07:21:50.130Z,3.4
2019-03-12T07:22:57.363Z,3.6
2019-03-12T07:24:04.522Z,3.7
2019-03-12T07:25:11.466Z,3.8
2019-03-12T07:26:18.628Z,3.7
2019-03-12T07:27:25.863Z,3.8
2019-03-12T07:28:32.801Z,3.7
2019-03-12T07:29:40.045Z,3.7
2019-03-12T07:30:47.247Z,3.7
2019-03-12T07:31:54.479Z,3.8
2019-03-12T07:33:01.708Z,3.9
2019-03-12T07:34:08.917Z,4
2019-03-12T07:35:16.147Z,3.9
2019-03-12T07:36:23.373Z,4
2019-03-12T07:37:30.602Z,4
2019-03-12T07:38:37.566Z,4
2019-03-12T07:39:44.792Z,4
2019-03-12T07:40:52.082Z,4
2019-03-12T07:41:59.501Z,4
2019-03-12T07:43:06.732Z,3.9
2019-03-12T07:44:13.383Z,4
2019-03-12T07:45:20.597Z,4
2019-03-12T07:46:27.813Z,4
2019-03-12T07:47:36.620Z,4
2019-03-12T07:48:43.840Z,4.1
2019-03-12T07:49:51.061Z,4.3
2019-03-12T07:50:58.268Z,4.5
2019-03-12T07:52:08.494Z,4.5
2019-03-12T07:53:15.847Z,4.5
2019-03-12T07:54:23.055Z,4.5
2019-03-12T07:55:30.548Z,4.5
2019-03-12T07:56:37.748Z,4.5
2019-03-12T07:57:44.677Z,4.3
2019-03-12T07:58:51.963Z,4.4
2019-03-12T07:59:59.185Z,4.4
2019-03-12T08:01:06.439Z,4.6
2019-03-12T08:02:13.690Z,4.8
2019-03-12T08:03:20.921Z,4.9
2019-03-12T08:04:43.694Z,5
2019-03-12T08:05:50.781Z,5.1
2019-03-12T08:06:58.000Z,5
2019-03-12T08:08:05.218Z,5.1
2019-03-12T08:09:12.389Z,5.1
2019-03-12T08:10:19.600Z,5.2
2019-03-12T08:11:27.050Z,5.3
2019-03-12T08:12:35.032Z,5.3
2019-03-12T08:13:42.109Z,5.4
2019-03-12T08:14:49.323Z,5.4
2019-03-12T08:15:56.526Z,5.3
2019-03-12T08:17:03.739Z,5.5
2019-03-12T08:18:11.049Z,5.5
2019-03-12T08:19:18.267Z,5.4
2019-03-12T08:20:25.498Z,5.6
2019-03-12T08:21:32.733Z,5.8
2019-03-12T08:22:39.937Z,5.8
2019-03-12T08:23:47.160Z,5.7
2019-03-12T08:24:54.093Z,5.8
2019-03-12T08:26:01.298Z,5.7
2019-03-12T08:27:08.517Z,5.8
2019-03-12T08:28:15.725Z,5.7
2019-03-12T08:29:22.893Z,5.8
2019-03-12T08:30:30.128Z,5.8
2019-03-12T08:31:37.361Z,5.8
2019-03-12T08:32:44.407Z,5.9
2019-03-12T08:33:51.760Z,5.8
2019-03-12T08:34:58.695Z,6
2019-03-12T08:36:05.858Z,6.1
2019-03-12T08:37:13.092Z,6.1
2019-03-12T08:38:20.528Z,6.1
2019-03-12T08:39:27.735Z,6.2
2019-03-12T08:40:35.174Z,6.3
2019-03-12T08:41:42.397Z,6.2
2019-03-12T08:42:55.346Z,5.9
2019-03-12T08:44:02.558Z,6
2019-03-12T08:45:15.263Z,6
2019-03-12T08:46:23.687Z,6.1
2019-03-12T08:47:30.911Z,6.1
2019-03-12T08:48:38.145Z,6.4
2019-03-12T08:49:45.375Z,6.3
2019-03-12T08:50:52.588Z,6.4
2019-03-12T08:51:59.804Z,6.3
2019-03-12T08:53:07.009Z,6.5
2019-03-12T08:54:14.444Z,6.6
2019-03-12T08:55:24.453Z,6.8
2019-03-12T08:56:33.358Z,7.1
2019-03-12T08:57:40.565Z,7.3
2019-03-12T08:58:47.767Z,7.3
2019-03-12T08:59:54.701Z,7.3
2019-03-12T09:01:01.372Z,7.2
2019-03-12T09:02:08.573Z,7.2
2019-03-12T09:04:52.320Z,7
2019-03-12T09:05:59.290Z,7
2019-03-12T09:07:06.490Z,7
2019-03-12T09:08:13.692Z,7
2019-03-12T09:09:20.958Z,6.6
2019-03-12T23:00:06.890Z,6.4
2019-03-12T23:01:14.096Z,6.4
2019-03-12T23:02:21.517Z,6.5
2019-03-12T23:03:28.716Z,6.5
2019-03-12T23:04:35.943Z,6.5
2019-03-12T23:05:43.155Z,6.4
2019-03-12T23:06:49.809Z,6.4
2019-03-12T23:07:57.015Z,6.5
2019-03-12T23:09:04.224Z,6.5
2019-03-12T23:10:11.435Z,6.5
2019-03-12T23:11:18.652Z,6.5
2019-03-12T23:12:25.863Z,6.4
2019-03-12T23:13:33.066Z,6.4
2019-03-12T23:14:39.974Z,6.5
2019-03-12T23:15:47.266Z,6.7
2019-03-12T23:16:54.534Z,6.8
2019-03-12T23:18:01.737Z,6.9
2019-03-12T23:19:08.955Z,7
2019-03-12T23:20:15.883Z,7
2019-03-12T23:21:23.078Z,6.9
2019-03-12T23:22:30.293Z,6.9
2019-03-12T23:23:37.493Z,6.9
2019-03-12T23:24:44.420Z,6.9
2019-03-12T23:25:51.624Z,6.8
2019-03-12T23:26:58.833Z,6.8
2019-03-12T23:28:06.058Z,6.8
2019-03-12T23:29:13.290Z,6.7
2019-03-12T23:30:20.493Z,6.6
2019-03-12T23:31:27.725Z,6.6
2019-03-12T23:32:34.945Z,6.6
2019-03-12T23:33:42.145Z,6.5
2019-03-12T23:34:49.348Z,6.5
2019-03-12T23:35:56.280Z,6.5
2019-03-12T23:37:03.225Z,6.5
2019-03-12T23:38:10.444Z,6.6
2019-03-12T23:39:17.650Z,6.6
2019-03-12T23:40:24.872Z,6.6
2019-03-12T23:41:32.079Z,6.6
2019-03-12T23:42:39.027Z,6.6
2019-03-12T23:43:46.239Z,6.6
2019-03-12T23:44:53.442Z,6.6
2019-03-12T23:46:00.653Z,6.6
2019-03-12T23:47:07.861Z,6.6
2019-03-12T23:48:15.070Z,6.6
2019-03-12T23:49:22.277Z,6.6
2019-03-12T23:50:29.207Z,6.6
2019-03-12T23:51:36.140Z,6.6
2019-03-12T23:52:43.347Z,6.6
2019-03-12T23:53:50.275Z,6.6
2019-03-12T23:54:57.482Z,6.7
2019-03-12T23:56:04.703Z,6.7
2019-03-12T23:57:11.911Z,6.7
2019-03-12T23:58:18.857Z,6.7
2019-03-12T23:59:26.073Z,6.7
